Main page
METAR-TAF:

METAR-TAF

Airports :

Kleine Brogel Air Base

Peer, Belgium

latitude: 51-10N, longitude: 005-28E, elevation: 55 m

Current weather observation

The report was made 45 minutes ago, at 14:25 UTC
Wind 5 kt from the East
Temperature 15°C
Humidity 33%
Pressure 1023 hPa
Visibility 10 km or more

METAR: EBBL 041425Z AUTO 10005KT 9999 NCD 15/M01 Q1023 BLU

Time: 17:10 (15:10 UTC)


TAF: missing

Weather observations and forecasts of more than 4000 airports (METAR and TAF reports).

The available stations are represented by yellow and red dots on the map.

Hover mouse over dot to see the name of the station.

Then click to see weather observations and forecasts.

To change the map : click on the green buttons with a black cross to zoom in, on the green button with a dash to zoom out, or on the green arrows for adjacent maps.


METAR-TAF: